Terminal Aerodrome Forecast
Issued by NWS Binghamton, NY

Home | Current Version | Previous Version | Text Only | Print | Product List | Glossary On
Versions: 1 2 3 4 5 6 7 8 9 10 11 12 13 14 15 16 17 18 19 20
000
FTUS41 KBGM 281300 AAA
TAFBGM
TAF AMD
KBGM 281323Z 2813/2912 32008KT P6SM BKN015
     FM281600 32012KT P6SM BKN035
     FM282100 33010KT P6SM SCT040
     FM290000 33004KT P6SM SKC=

USA.gov is the U.S. government's official web portal to all federal, state and local government web resources and services.